Time;durP1;ratioP1;P1;durP2;ratioP2;P2;SDS_P1;SDS_P2;PMS_P1;PMS_P2;Temp;Humidity;BMP_temperature;BMP_pressure;BME280_temperature;BME280_humidity;BME280_pressure;Samples;Min_cycle;Max_cycle;Signal;HPM_P1;HPM_P2
2022/08/26 00:01:12;;;;;;;4.03;1.60;;;25.70;99.90;;;;;;1882476;76;21205;-83
2022/08/26 00:03:44;;;;;;;3.10;1.85;;;25.70;99.90;;;;;;1888586;76;21174;-82
2022/08/26 00:06:15;;;;;;;5.80;1.87;;;25.70;99.90;;;;;;1902712;74;21213;-80
2022/08/26 00:08:47;;;;;;;7.55;2.10;;;25.70;99.90;;;;;;1846472;76;21626;-82
2022/08/26 00:11:20;;;;;;;2.92;1.65;;;25.70;99.90;;;;;;1880779;74;21135;-82
2022/08/26 00:13:52;;;;;;;3.25;1.50;;;25.70;99.90;;;;;;1844806;77;21826;-81
2022/08/26 00:16:25;;;;;;;7.45;2.45;;;25.80;99.90;;;;;;1878560;75;21152;-81
2022/08/26 00:18:57;;;;;;;5.58;1.80;;;25.70;99.90;;;;;;1879712;75;21151;-81
2022/08/26 00:21:28;;;;;;;3.65;2.02;;;25.80;99.90;;;;;;1877887;76;21853;-81
2022/08/26 00:23:59;;;;;;;4.03;2.00;;;25.80;99.90;;;;;;1892238;75;21154;-82
2022/08/26 00:26:32;;;;;;;3.58;1.85;;;25.80;99.90;;;;;;1899721;75;21037;-83
2022/08/26 00:29:03;;;;;;;6.03;1.90;;;25.90;99.90;;;;;;1899587;75;21092;-82
2022/08/26 00:31:34;;;;;;;7.72;2.42;;;25.90;99.90;;;;;;1895851;74;21178;-82
2022/08/26 00:34:05;;;;;;;5.20;2.10;;;25.90;99.90;;;;;;1878206;75;21202;-81
2022/08/26 00:36:38;;;;;;;4.00;1.90;;;25.90;99.90;;;;;;1888458;74;21136;-83
2022/08/26 00:39:10;;;;;;;4.45;1.90;;;25.90;99.90;;;;;;1897201;74;21185;-82
2022/08/26 00:41:42;;;;;;;4.15;1.65;;;26.00;99.90;;;;;;1879013;75;21111;-81
2022/08/26 00:44:13;;;;;;;4.45;1.80;;;26.00;99.90;;;;;;1883112;76;21086;-82
2022/08/26 00:46:47;;;;;;;4.92;2.00;;;26.00;99.90;;;;;;1880992;74;21129;-83
2022/08/26 00:49:20;;;;;;;5.50;2.35;;;26.00;99.90;;;;;;1883895;75;21123;-83
2022/08/26 00:51:56;;;;;;;5.37;2.10;;;26.00;99.90;;;;;;1882499;75;21646;-83
2022/08/26 00:54:31;;;;;;;3.65;1.42;;;26.00;99.90;;;;;;1884282;74;21598;-84
2022/08/26 00:57:05;;;;;;;3.33;2.08;;;26.10;99.90;;;;;;1877789;75;21143;-84
2022/08/26 00:59:40;;;;;;;3.83;1.52;;;26.10;99.90;;;;;;1879908;75;21089;-83
2022/08/26 01:02:13;;;;;;;5.00;1.40;;;26.10;99.90;;;;;;1880925;74;21238;-83
2022/08/26 01:04:45;;;;;;;4.33;1.60;;;26.10;99.90;;;;;;1887778;75;21186;-82
2022/08/26 01:07:18;;;;;;;7.97;1.60;;;26.10;99.90;;;;;;1856892;75;21158;-83
2022/08/26 01:09:50;;;;;;;3.30;1.65;;;26.20;99.90;;;;;;1862409;77;21159;-84
2022/08/26 01:12:22;;;;;;;6.37;1.40;;;26.20;99.90;;;;;;1854915;77;21134;-84
2022/08/26 01:14:55;;;;;;;2.80;1.30;;;26.20;99.90;;;;;;1894232;74;21449;-84
2022/08/26 01:17:26;;;;;;;2.90;1.50;;;26.20;99.90;;;;;;1850748;77;21135;-85
2022/08/26 01:20:04;;;;;;;3.85;1.70;;;26.20;99.90;;;;;;1870562;75;21502;-84
2022/08/26 01:42:53;;;;;;;;;;;26.50;99.90;;;;;;1766324;80;21211;-89
2022/08/26 01:45:40;;;;;;;4.85;1.57;;;26.60;99.90;;;;;;1750176;80;20253;-87
2022/08/26 01:48:01;;;;;;;3.65;1.98;;;26.60;99.90;;;;;;1749450;80;21312;-86
2022/08/26 01:50:34;;;;;;;5.33;1.82;;;26.70;99.90;;;;;;1758947;80;21190;-86
2022/08/26 01:53:08;;;;;;;4.10;1.50;;;26.70;99.90;;;;;;1753358;80;21181;-88
2022/08/26 01:55:45;;;;;;;5.80;1.80;;;26.80;99.90;;;;;;1762338;80;21187;-87
2022/08/26 01:58:20;;;;;;;3.40;1.60;;;26.80;99.90;;;;;;1763980;80;21814;-87
2022/08/26 02:00:52;;;;;;;4.05;1.80;;;26.90;99.90;;;;;;1772623;79;21195;-84
2022/08/26 02:03:24;;;;;;;4.70;1.90;;;27.00;99.90;;;;;;1765363;80;21208;-85
2022/08/26 02:06:03;;;;;;;5.12;1.67;;;27.00;99.90;;;;;;1779120;78;21477;-86
2022/08/26 02:08:46;;;;;;;3.12;1.47;;;27.00;99.90;;;;;;1782833;78;21079;-84
2022/08/26 02:11:20;;;;;;;4.33;1.20;;;27.10;99.90;;;;;;1826378;77;21164;-85
2022/08/26 02:13:54;;;;;;;13.25;1.50;;;27.10;99.90;;;;;;1827317;77;21680;-72
2022/08/26 02:16:27;;;;;;;4.50;1.70;;;27.20;99.90;;;;;;1792344;78;21233;-72
2022/08/26 02:19:01;;;;;;;7.22;1.90;;;27.20;99.90;;;;;;1812974;78;21698;-71
2022/08/26 02:21:33;;;;;;;3.83;1.95;;;27.20;99.90;;;;;;1827358;77;21123;-73
2022/08/26 02:24:06;;;;;;;3.40;1.92;;;27.30;99.90;;;;;;1827147;77;21135;-72
2022/08/26 02:26:38;;;;;;;5.40;2.22;;;27.40;99.90;;;;;;1793887;78;21867;-72
2022/08/26 02:29:11;;;;;;;3.62;1.50;;;27.50;99.90;;;;;;1813322;77;21706;-73
2022/08/26 02:31:43;;;;;;;4.92;1.70;;;27.50;99.90;;;;;;1804294;78;21115;-74
2022/08/26 02:34:16;;;;;;;4.55;2.10;;;27.60;99.90;;;;;;1801279;79;21100;-72
2022/08/26 02:36:48;;;;;;;4.53;1.77;;;27.70;99.90;;;;;;1800859;78;21147;-71
2022/08/26 02:39:19;;;;;;;6.03;1.85;;;27.80;99.80;;;;;;1799874;78;21185;-72
2022/08/26 02:41:54;;;;;;;4.83;2.00;;;27.90;99.70;;;;;;1803057;78;21228;-73
2022/08/26 02:44:24;;;;;;;4.72;1.70;;;28.00;99.70;;;;;;1825434;77;21136;-73
2022/08/26 02:46:56;;;;;;;7.37;2.10;;;28.10;99.30;;;;;;1800915;77;21159;-72
2022/08/26 02:49:29;;;;;;;6.20;2.20;;;28.20;99.60;;;;;;1815818;78;21163;-72
2022/08/26 02:52:00;;;;;;;7.03;1.95;;;28.20;99.10;;;;;;1819688;78;21230;-73
2022/08/26 02:54:31;;;;;;;7.35;1.92;;;28.30;99.10;;;;;;1817779;77;21179;-73
2022/08/26 02:57:03;;;;;;;6.72;2.20;;;28.30;99.00;;;;;;1812390;77;21276;-73
2022/08/26 02:59:35;;;;;;;6.00;2.35;;;28.30;98.80;;;;;;1824676;77;21633;-74
2022/08/26 03:02:09;;;;;;;4.83;1.82;;;28.40;98.70;;;;;;1813950;79;21187;-72
2022/08/26 03:04:40;;;;;;;4.72;1.80;;;28.30;99.00;;;;;;1786527;79;21194;-73
2022/08/26 03:07:13;;;;;;;7.12;2.15;;;28.30;99.10;;;;;;1802562;77;21088;-73
2022/08/26 03:09:44;;;;;;;6.12;2.22;;;28.30;98.70;;;;;;1807637;77;21656;-73
2022/08/26 03:12:15;;;;;;;5.17;2.02;;;28.40;99.00;;;;;;1790820;80;21188;-73
2022/08/26 03:14:48;;;;;;;4.67;2.00;;;28.40;98.70;;;;;;1848082;77;21201;-73
2022/08/26 03:17:20;;;;;;;6.20;2.08;;;28.50;99.30;;;;;;1824447;77;21693;-73
2022/08/26 03:19:51;;;;;;;7.08;2.30;;;28.60;99.60;;;;;;1811303;79;21123;-73
2022/08/26 03:22:26;;;;;;;3.27;1.80;;;28.70;99.20;;;;;;1851187;76;21153;-74
2022/08/26 03:24:57;;;;;;;6.00;2.10;;;28.70;98.80;;;;;;1814813;77;21495;-73
2022/08/26 03:27:28;;;;;;;5.05;2.20;;;28.80;98.70;;;;;;1830560;77;21149;-75
2022/08/26 03:32:33;;;;;;;5.25;2.22;;;28.80;98.50;;;;;;1813489;79;21236;-73
2022/08/26 03:35:06;;;;;;;5.12;2.25;;;28.70;98.50;;;;;;1833702;77;21660;-73
2022/08/26 03:37:37;;;;;;;5.65;2.08;;;28.80;98.80;;;;;;1839250;77;21148;-73
2022/08/26 03:40:10;;;;;;;6.28;2.02;;;28.70;98.40;;;;;;1828294;77;21135;-71
2022/08/26 03:42:43;;;;;;;4.03;2.08;;;28.60;98.60;;;;;;1818710;77;21949;-72
2022/08/26 03:45:14;;;;;;;7.90;2.27;;;28.60;98.70;;;;;;1847376;77;21682;-74
2022/08/26 03:47:46;;;;;;;5.90;2.00;;;28.60;98.80;;;;;;1805293;78;21174;-72
2022/08/26 03:50:19;;;;;;;6.95;2.83;;;28.60;99.20;;;;;;1824295;77;21174;-72
2022/08/26 03:52:53;;;;;;;6.53;2.45;;;28.50;98.70;;;;;;1812196;79;21145;-73
2022/08/26 03:55:27;;;;;;;3.65;2.15;;;28.50;98.60;;;;;;1783395;79;21662;-73
2022/08/26 03:57:58;;;;;;;8.85;2.45;;;28.50;98.80;;;;;;1806808;78;21196;-73
2022/08/26 04:00:29;;;;;;;7.60;2.33;;;28.40;99.00;;;;;;1827345;78;21180;-72
2022/08/26 04:03:02;;;;;;;6.10;2.65;;;28.40;99.00;;;;;;1799418;78;21118;-72
2022/08/26 04:05:32;;;;;;;7.00;2.20;;;28.40;99.10;;;;;;1799876;78;21157;-72
2022/08/26 04:08:04;;;;;;;6.90;2.45;;;28.40;99.10;;;;;;1790615;78;21614;-73
2022/08/26 04:10:37;;;;;;;3.90;2.30;;;28.40;99.30;;;;;;1782537;79;21326;-73
2022/08/26 04:13:08;;;;;;;4.67;2.35;;;28.40;99.40;;;;;;1815979;77;21209;-72
2022/08/26 04:15:40;;;;;;;6.42;2.60;;;28.40;99.10;;;;;;1844479;77;21724;-72
2022/08/26 04:18:11;;;;;;;6.08;2.58;;;28.40;99.20;;;;;;1821925;77;21146;-73
2022/08/26 04:20:43;;;;;;;5.17;2.47;;;28.40;99.10;;;;;;1840465;77;21143;-72
2022/08/26 04:23:15;;;;;;;7.85;2.70;;;28.40;99.20;;;;;;1831507;77;21210;-72
2022/08/26 04:25:46;;;;;;;7.95;2.80;;;28.50;99.00;;;;;;1815492;77;21173;-72
2022/08/26 04:28:18;;;;;;;5.35;2.90;;;28.50;99.10;;;;;;1781865;78;21846;-72
2022/08/26 04:30:49;;;;;;;6.92;2.98;;;28.60;99.40;;;;;;1786525;78;21155;-73
2022/08/26 04:33:20;;;;;;;6.67;2.90;;;28.60;99.00;;;;;;1836433;77;21152;-73
2022/08/26 04:35:54;;;;;;;5.05;2.40;;;28.60;99.10;;;;;;1829893;77;21092;-73
2022/08/26 04:38:26;;;;;;;5.92;2.55;;;28.70;98.70;;;;;;1826969;78;22144;-73
2022/08/26 04:40:57;;;;;;;5.62;2.27;;;28.70;99.00;;;;;;1821888;77;21115;-72
2022/08/26 04:43:29;;;;;;;7.78;2.72;;;28.70;98.80;;;;;;1788838;79;21170;-73
2022/08/26 04:46:05;;;;;;;7.40;2.80;;;28.70;98.60;;;;;;1784996;79;21245;-74
2022/08/26 04:48:36;;;;;;;5.30;2.45;;;28.60;98.70;;;;;;1825523;78;21196;-72
2022/08/26 04:51:08;;;;;;;6.72;2.70;;;28.60;98.80;;;;;;1827957;77;21071;-73
2022/08/26 04:53:39;;;;;;;7.67;3.00;;;28.60;98.90;;;;;;1816332;79;21579;-73
2022/08/26 04:56:10;;;;;;;7.83;3.05;;;28.60;99.00;;;;;;1833206;77;21069;-73
2022/08/26 04:58:41;;;;;;;5.75;2.70;;;28.60;98.80;;;;;;1841769;77;21202;-73
2022/08/26 05:01:12;;;;;;;9.53;2.75;;;28.60;98.80;;;;;;1837088;77;21749;-72
2022/08/26 05:03:43;;;;;;;5.10;2.42;;;28.60;98.70;;;;;;1806447;78;21121;-73
2022/08/26 05:06:15;;;;;;;6.80;2.72;;;28.60;98.80;;;;;;1824031;78;21177;-73
2022/08/26 05:08:47;;;;;;;6.97;2.90;;;28.50;99.00;;;;;;1843053;77;21611;-73
2022/08/26 05:11:19;;;;;;;9.88;3.10;;;28.50;99.20;;;;;;1838269;77;21208;-72
2022/08/26 05:13:50;;;;;;;9.78;3.20;;;28.40;99.40;;;;;;1790935;78;21197;-73
2022/08/26 05:16:21;;;;;;;10.03;3.25;;;28.30;99.60;;;;;;1825141;77;21564;-72
2022/08/26 05:18:53;;;;;;;10.60;3.75;;;28.30;99.20;;;;;;1786455;79;21198;-72
2022/08/26 05:21:27;;;;;;;8.33;2.87;;;28.20;99.60;;;;;;1816975;79;21109;-72
2022/08/26 05:24:00;;;;;;;9.55;3.83;;;28.20;99.70;;;;;;1819202;79;21221;-73
2022/08/26 05:26:32;;;;;;;5.40;2.87;;;28.30;99.80;;;;;;1816894;77;21748;-72
2022/08/26 05:29:05;;;;;;;10.98;3.08;;;28.40;99.80;;;;;;1828271;77;21618;-73
2022/08/26 05:31:35;;;;;;;12.98;3.42;;;28.40;99.50;;;;;;1828998;77;21173;-73
2022/08/26 05:34:07;;;;;;;7.33;3.22;;;28.60;99.50;;;;;;1849654;77;21617;-73
2022/08/26 05:36:38;;;;;;;6.85;2.95;;;28.70;98.60;;;;;;1816740;77;21151;-72
2022/08/26 05:39:10;;;;;;;6.75;3.17;;;28.70;98.80;;;;;;1824712;77;21159;-72
2022/08/26 05:41:42;;;;;;;7.83;3.42;;;28.70;98.80;;;;;;1827031;77;22330;-72
2022/08/26 05:44:17;;;;;;;8.68;3.52;;;28.70;98.80;;;;;;1850614;77;21134;-71
2022/08/26 05:46:59;;;;;;;6.28;3.47;;;28.70;98.90;;;;;;1815678;77;21152;-73
2022/08/26 05:49:31;;;;;;;6.78;3.60;;;28.60;98.90;;;;;;1855562;76;21526;-72
2022/08/26 05:52:04;;;;;;;6.33;3.00;;;28.60;99.00;;;;;;1878870;74;21085;-71
2022/08/26 05:54:38;;;;;;;6.40;3.47;;;28.60;99.00;;;;;;1877508;74;21148;-72
2022/08/26 05:57:11;;;;;;;6.60;3.40;;;28.60;99.10;;;;;;1880406;74;21895;-73
2022/08/26 05:59:41;;;;;;;6.65;3.47;;;28.60;99.20;;;;;;1867229;75;21218;-73
2022/08/26 06:02:13;;;;;;;8.10;3.85;;;28.60;99.10;;;;;;1852744;76;21124;-73
2022/08/26 06:04:45;;;;;;;6.80;3.42;;;28.60;99.20;;;;;;1868363;74;21603;-72
2022/08/26 06:07:16;;;;;;;13.13;3.67;;;28.50;99.60;;;;;;1876071;75;21283;-73
2022/08/26 06:09:49;;;;;;;6.67;3.10;;;28.50;98.90;;;;;;1875746;74;21143;-73
2022/08/26 06:12:20;;;;;;;8.45;3.80;;;28.40;99.10;;;;;;1875453;75;21646;-73
2022/08/26 06:14:51;;;;;;;8.58;3.58;;;28.30;99.90;;;;;;1856948;76;21651;-73
2022/08/26 06:17:21;;;;;;;10.50;3.98;;;28.20;99.90;;;;;;1879095;76;21579;-73
2022/08/26 06:19:53;;;;;;;10.38;4.03;;;28.10;99.90;;;;;;1872935;75;21811;-72
2022/08/26 06:27:29;;;;;;;8.68;4.30;;;27.80;99.90;;;;;;1877395;73;22124;-73
2022/08/26 06:30:01;;;;;;;9.23;3.90;;;27.60;99.90;;;;;;1876782;75;21117;-72
2022/08/26 06:32:32;;;;;;;8.18;3.80;;;27.50;99.90;;;;;;1878037;75;21197;-73
2022/08/26 06:35:04;;;;;;;9.08;3.92;;;27.40;99.90;;;;;;1835497;76;21112;-72
2022/08/26 06:37:36;;;;;;;7.42;3.77;;;27.40;99.90;;;;;;1875366;75;21134;-72
2022/08/26 06:40:07;;;;;;;9.50;4.50;;;27.30;99.90;;;;;;1845163;76;21578;-72
2022/08/26 06:42:40;;;;;;;6.45;3.87;;;27.30;99.90;;;;;;1878610;74;21380;-72
2022/08/26 06:45:11;;;;;;;11.15;4.40;;;27.30;99.90;;;;;;1871540;75;21086;-71
2022/08/26 06:47:43;;;;;;;9.28;4.33;;;27.30;99.90;;;;;;1887418;75;21610;-71
2022/08/26 06:50:16;;;;;;;9.83;4.22;;;27.40;99.90;;;;;;1884212;75;21084;-71
2022/08/26 06:52:47;;;;;;;6.97;4.08;;;27.40;99.90;;;;;;1886757;75;21122;-71
2022/08/26 06:55:18;;;;;;;7.75;4.65;;;27.50;99.90;;;;;;1827197;78;21570;-72
2022/08/26 06:57:51;;;;;;;7.47;4.37;;;27.60;99.90;;;;;;1881142;75;21644;-72
2022/08/26 07:00:22;;;;;;;7.87;3.80;;;27.70;99.90;;;;;;1882439;75;21118;-72
2022/08/26 07:02:53;;;;;;;7.87;3.83;;;27.70;99.90;;;;;;1872994;75;21085;-72
2022/08/26 07:05:25;;;;;;;6.17;3.30;;;27.70;99.90;;;;;;1874843;75;21145;-72
2022/08/26 07:07:57;;;;;;;6.53;2.72;;;27.80;99.90;;;;;;1829128;78;21085;-72
2022/08/26 07:10:28;;;;;;;5.55;2.85;;;27.90;99.90;;;;;;1876298;75;21147;-71
2022/08/26 07:12:59;;;;;;;5.60;2.27;;;27.90;99.90;;;;;;1882531;75;21196;-72
2022/08/26 07:15:32;;;;;;;6.50;2.70;;;27.90;99.90;;;;;;1808570;78;21155;-71
2022/08/26 07:18:03;;;;;;;5.28;2.45;;;27.90;99.90;;;;;;1817449;78;21102;-71
2022/08/26 07:20:39;;;;;;;6.55;2.15;;;27.90;99.90;;;;;;1883229;74;21161;-71
2022/08/26 07:23:12;;;;;;;5.85;2.55;;;27.80;99.80;;;;;;1885458;74;21212;-71
2022/08/26 07:25:45;;;;;;;5.60;2.72;;;27.80;99.40;;;;;;1879214;75;21203;-71
2022/08/26 07:28:16;;;;;;;10.82;2.22;;;27.70;99.70;;;;;;1853851;76;21082;-72
2022/08/26 07:30:47;;;;;;;9.33;2.50;;;27.70;99.50;;;;;;1877925;75;21180;-71
2022/08/26 07:33:18;;;;;;;10.20;3.30;;;27.60;99.60;;;;;;1878210;76;21528;-72
2022/08/26 07:35:49;;;;;;;6.00;2.55;;;27.60;99.90;;;;;;1869898;75;21058;-72
2022/08/26 07:38:21;;;;;;;6.53;2.98;;;27.60;99.90;;;;;;1881130;74;21640;-71
2022/08/26 07:40:53;;;;;;;6.70;2.67;;;27.60;99.90;;;;;;1872043;76;21143;-72
2022/08/26 07:43:24;;;;;;;8.10;3.10;;;27.60;99.90;;;;;;1874706;76;21145;-71
2022/08/26 07:45:57;;;;;;;6.37;2.85;;;27.60;99.90;;;;;;1878661;76;21189;-71
2022/08/26 07:48:28;;;;;;;10.23;3.22;;;27.70;99.90;;;;;;1883182;75;21136;-72
2022/08/26 07:51:00;;;;;;;6.20;2.92;;;27.70;99.90;;;;;;1888320;75;21245;-72
2022/08/26 07:53:31;;;;;;;7.50;3.10;;;27.70;99.90;;;;;;1872808;75;21639;-72
2022/08/26 07:56:03;;;;;;;8.60;2.92;;;27.70;99.90;;;;;;1883230;75;21885;-70
2022/08/26 07:58:34;;;;;;;7.17;3.10;;;27.70;99.90;;;;;;1861692;76;21180;-71
2022/08/26 08:01:06;;;;;;;5.33;2.85;;;27.70;99.90;;;;;;1874301;74;21624;-71
2022/08/26 08:03:39;;;;;;;6.28;2.90;;;27.70;99.90;;;;;;1873897;75;21141;-72
2022/08/26 08:06:10;;;;;;;8.43;3.30;;;27.70;99.90;;;;;;1889260;74;21215;-72
2022/08/26 08:08:41;;;;;;;6.33;2.77;;;27.70;99.90;;;;;;1852507;76;21163;-71
2022/08/26 08:11:12;;;;;;;7.65;3.10;;;27.70;99.90;;;;;;1882231;74;21502;-72
2022/08/26 08:13:43;;;;;;;7.53;3.50;;;27.80;99.90;;;;;;1878701;75;21112;-71
2022/08/26 08:16:14;;;;;;;9.63;4.15;;;27.80;99.90;;;;;;1851775;76;21203;-71
2022/08/26 08:18:45;;;;;;;5.75;3.72;;;27.90;99.90;;;;;;1883488;74;21198;-72
2022/08/26 08:21:18;;;;;;;10.90;4.55;;;28.00;99.90;;;;;;1853780;76;21173;-72
2022/08/26 08:23:51;;;;;;;8.00;3.92;;;28.00;99.90;;;;;;1829836;77;21221;-72
2022/08/26 08:26:23;;;;;;;6.33;3.05;;;28.00;99.90;;;;;;1880878;75;21773;-72
2022/08/26 08:28:56;;;;;;;8.60;3.50;;;28.00;99.90;;;;;;1879887;75;21599;-72
2022/08/26 08:31:30;;;;;;;6.25;3.25;;;28.00;99.90;;;;;;1876811;74;22232;-72
2022/08/26 08:34:02;;;;;;;8.00;3.17;;;28.10;99.90;;;;;;1875334;76;21190;-72
2022/08/26 08:36:33;;;;;;;5.55;2.95;;;28.10;99.90;;;;;;1884573;74;21145;-72
2022/08/26 08:39:04;;;;;;;7.53;3.75;;;28.10;99.90;;;;;;1886349;75;21147;-73
2022/08/26 08:41:38;;;;;;;6.08;3.50;;;28.10;99.90;;;;;;1872287;75;21182;-73
2022/08/26 08:44:11;;;;;;;5.12;2.70;;;28.10;99.90;;;;;;1825348;78;21936;-72
2022/08/26 08:46:44;;;;;;;5.80;3.42;;;28.10;99.90;;;;;;1871182;76;21143;-71
2022/08/26 08:49:16;;;;;;;8.05;3.02;;;28.10;99.40;;;;;;1831078;76;21147;-72
2022/08/26 08:51:48;;;;;;;6.08;3.25;;;28.10;99.50;;;;;;1830205;77;21135;-72
2022/08/26 08:54:19;;;;;;;7.45;3.00;;;28.10;99.30;;;;;;1818908;77;21203;-72
2022/08/26 08:56:56;;;;;;;7.53;3.27;;;28.10;99.20;;;;;;1870931;75;21140;-72
2022/08/26 08:59:28;;;;;;;8.30;3.00;;;28.10;99.30;;;;;;1871912;75;21133;-72
2022/08/26 09:02:04;;;;;;;6.40;2.30;;;28.10;99.20;;;;;;1829420;77;21272;-73
2022/08/26 09:04:37;;;;;;;5.80;2.30;;;28.10;99.70;;;;;;1860519;75;21745;-73
2022/08/26 09:07:12;;;;;;;6.67;2.77;;;28.10;98.90;;;;;;1861087;75;21269;-73
2022/08/26 09:09:47;;;;;;;8.48;2.92;;;28.10;98.80;;;;;;1865018;75;21218;-73
2022/08/26 09:12:22;;;;;;;6.95;2.77;;;28.10;99.10;;;;;;1890242;75;21078;-73
2022/08/26 09:14:57;;;;;;;6.12;3.02;;;28.10;99.20;;;;;;1861349;74;21152;-72
2022/08/26 09:17:30;;;;;;;6.97;3.12;;;28.10;99.50;;;;;;1801054;78;21983;-73
2022/08/26 09:20:03;;;;;;;5.55;3.25;;;28.10;99.50;;;;;;1868554;76;21207;-72
2022/08/26 09:22:36;;;;;;;7.30;3.50;;;28.10;99.50;;;;;;1875333;75;21678;-72
2022/08/26 09:25:10;;;;;;;6.62;3.47;;;28.00;99.50;;;;;;1870495;75;21230;-72
2022/08/26 09:27:43;;;;;;;6.95;3.52;;;28.00;99.70;;;;;;1899866;75;21129;-73
2022/08/26 09:30:16;;;;;;;7.95;3.40;;;28.00;99.80;;;;;;1902275;75;21215;-73
2022/08/26 09:32:53;;;;;;;8.50;3.85;;;28.00;99.90;;;;;;1894491;74;21115;-71
2022/08/26 09:35:27;;;;;;;6.95;3.72;;;28.00;99.90;;;;;;1884604;75;21843;-72
2022/08/26 09:37:58;;;;;;;5.92;4.33;;;28.00;99.90;;;;;;1871324;74;21257;-72
2022/08/26 09:40:32;;;;;;;11.57;4.75;;;28.00;99.90;;;;;;1872888;75;21225;-72
2022/08/26 09:43:04;;;;;;;7.95;4.55;;;28.00;99.90;;;;;;1877769;75;21132;-72
2022/08/26 09:45:37;;;;;;;7.08;4.37;;;28.00;99.90;;;;;;1864316;77;21249;-73
2022/08/26 09:48:09;;;;;;;8.38;4.65;;;28.00;99.90;;;;;;1883372;75;21137;-72
2022/08/26 09:50:44;;;;;;;6.00;4.00;;;28.00;99.90;;;;;;1863418;76;21122;-72
2022/08/26 09:53:18;;;;;;;5.62;4.22;;;28.00;99.90;;;;;;1892574;74;21225;-73
2022/08/26 09:55:53;;;;;;;10.28;4.78;;;28.00;99.90;;;;;;1891680;74;22020;-72
2022/08/26 09:58:27;;;;;;;8.65;4.62;;;28.10;99.90;;;;;;1882710;74;21721;-72
2022/08/26 10:01:02;;;;;;;8.58;4.25;;;28.10;99.90;;;;;;1874465;75;21165;-72
2022/08/26 10:03:36;;;;;;;8.70;4.33;;;28.10;99.90;;;;;;1834826;76;21559;-72
2022/08/26 10:06:10;;;;;;;7.47;4.33;;;28.10;99.90;;;;;;1897687;74;21143;-72
2022/08/26 10:08:43;;;;;;;6.95;4.55;;;28.10;99.90;;;;;;1897370;74;21191;-72
2022/08/26 10:11:17;;;;;;;8.63;4.30;;;28.10;99.90;;;;;;1879521;74;21528;-71
2022/08/26 10:13:51;;;;;;;8.30;4.47;;;28.10;99.90;;;;;;1828485;78;21132;-73
2022/08/26 10:16:24;;;;;;;7.15;4.60;;;28.10;99.90;;;;;;1808054;78;21151;-72
2022/08/26 10:18:59;;;;;;;10.15;4.35;;;28.10;99.90;;;;;;1842006;78;21232;-72
2022/08/26 10:21:34;;;;;;;10.28;4.67;;;28.10;99.70;;;;;;1880831;75;21191;-72
2022/08/26 10:24:06;;;;;;;8.68;5.10;;;28.10;99.90;;;;;;1874263;74;21219;-71
2022/08/26 10:26:39;;;;;;;6.08;4.25;;;28.10;99.90;;;;;;1852696;76;21228;-72
2022/08/26 10:29:13;;;;;;;8.55;4.45;;;28.10;99.90;;;;;;1876517;75;21605;-72
2022/08/26 10:31:47;;;;;;;9.65;5.10;;;28.10;99.90;;;;;;1875837;75;21321;-71
2022/08/26 10:34:20;;;;;;;7.92;4.50;;;28.10;99.90;;;;;;1876808;76;21310;-71
2022/08/26 10:36:55;;;;;;;13.13;5.03;;;28.10;99.90;;;;;;1893740;75;21164;-71
2022/08/26 10:39:30;;;;;;;12.70;4.47;;;28.10;99.90;;;;;;1895163;74;21158;-73
2022/08/26 10:42:03;;;;;;;8.53;5.12;;;28.10;99.90;;;;;;1852548;76;21672;-73
2022/08/26 10:44:37;;;;;;;9.70;4.45;;;28.10;99.80;;;;;;1878337;74;21082;-72
2022/08/26 10:47:12;;;;;;;11.35;4.90;;;28.10;99.90;;;;;;1876174;76;21213;-73
2022/08/26 10:49:45;;;;;;;10.08;4.80;;;28.10;99.90;;;;;;1873996;76;21133;-73
2022/08/26 10:52:18;;;;;;;11.88;5.00;;;28.00;99.90;;;;;;1848307;76;21079;-73
2022/08/26 10:54:51;;;;;;;9.68;4.78;;;28.00;99.90;;;;;;1918142;73;21101;-73
2022/08/26 10:57:23;;;;;;;9.05;4.40;;;28.00;99.90;;;;;;1917463;74;21600;-73
2022/08/26 10:59:55;;;;;;;11.68;4.42;;;28.00;99.90;;;;;;1865845;74;21182;-73
2022/08/26 11:02:27;;;;;;;7.42;4.97;;;28.00;99.90;;;;;;1879248;74;21123;-73
2022/08/26 11:05:02;;;;;;;9.93;4.25;;;28.00;99.90;;;;;;1879178;76;21748;-71
2022/08/26 11:07:34;;;;;;;11.75;4.17;;;28.00;99.90;;;;;;1845646;76;21131;-72
2022/08/26 11:10:08;;;;;;;9.03;4.50;;;28.00;99.90;;;;;;1799623;79;21271;-72
2022/08/26 11:12:40;;;;;;;8.48;4.75;;;28.00;99.90;;;;;;1842920;76;21222;-73
2022/08/26 11:15:14;;;;;;;8.93;4.70;;;27.90;99.90;;;;;;1845098;76;21242;-73
2022/08/26 11:17:45;;;;;;;11.25;4.97;;;27.90;99.90;;;;;;1851968;76;21606;-73
2022/08/26 11:20:18;;;;;;;11.15;5.35;;;27.90;99.90;;;;;;1833691;76;21073;-73
2022/08/26 11:22:52;;;;;;;10.78;5.60;;;27.90;99.90;;;;;;1837550;77;21163;-73
2022/08/26 11:25:25;;;;;;;11.85;5.22;;;27.90;99.90;;;;;;1881708;75;21209;-73
2022/08/26 11:27:59;;;;;;;8.08;5.20;;;27.90;99.90;;;;;;1888373;75;21200;-73
2022/08/26 11:30:32;;;;;;;11.15;5.15;;;27.90;99.80;;;;;;1874666;76;21180;-73
2022/08/26 11:33:04;;;;;;;9.23;5.72;;;27.90;99.70;;;;;;1855729;76;21196;-73
2022/08/26 11:35:34;;;;;;;10.32;5.53;;;27.90;99.70;;;;;;1864666;76;21540;-73
2022/08/26 11:38:08;;;;;;;13.60;6.00;;;27.90;99.80;;;;;;1880839;76;21148;-73
2022/08/26 11:40:40;;;;;;;13.58;6.55;;;27.90;99.90;;;;;;1879206;76;21674;-73
2022/08/26 11:43:12;;;;;;;10.53;6.55;;;27.80;99.80;;;;;;1881605;76;22106;-73
2022/08/26 11:45:46;;;;;;;13.70;7.00;;;27.90;99.90;;;;;;1876007;76;21145;-73
2022/08/26 11:48:19;;;;;;;17.20;7.12;;;27.80;99.90;;;;;;1866039;76;21215;-73
2022/08/26 11:50:54;;;;;;;13.22;7.00;;;27.80;99.90;;;;;;1878117;76;21220;-73
2022/08/26 11:53:26;;;;;;;12.43;6.20;;;27.80;99.90;;;;;;1877335;76;21134;-73
2022/08/26 11:56:00;;;;;;;13.58;6.00;;;27.80;99.90;;;;;;1878032;76;21060;-73
2022/08/26 11:58:32;;;;;;;9.33;5.05;;;27.80;99.90;;;;;;1892355;74;21111;-72
2022/08/26 12:01:05;;;;;;;11.83;6.17;;;27.80;99.90;;;;;;1826013;78;21213;-72
2022/08/26 12:03:40;;;;;;;8.80;5.05;;;27.80;99.90;;;;;;1833509;76;21209;-71
2022/08/26 12:06:14;;;;;;;8.28;5.30;;;27.80;99.90;;;;;;1856033;76;21670;-72
2022/08/26 12:08:47;;;;;;;10.08;5.10;;;27.80;99.90;;;;;;1852401;76;21663;-73
2022/08/26 12:11:20;;;;;;;11.80;5.47;;;27.80;99.90;;;;;;1881639;74;21088;-73
2022/08/26 12:13:53;;;;;;;11.48;5.70;;;27.80;99.90;;;;;;1877590;76;21516;-72
2022/08/26 12:16:26;;;;;;;10.45;5.90;;;27.80;99.90;;;;;;1876826;76;21198;-73
2022/08/26 12:18:58;;;;;;;7.05;3.15;;;27.80;99.90;;;;;;1876881;76;21213;-72
2022/08/26 12:21:31;;;;;;;10.60;2.60;;;27.70;99.60;;;;;;1816477;78;22293;-72
2022/08/26 12:24:04;;;;;;;5.67;2.40;;;27.20;99.90;;;;;;1875986;75;21137;-71
2022/08/26 12:26:38;;;;;;;8.10;2.80;;;26.40;99.90;;;;;;1899797;75;21608;-72
2022/08/26 12:29:09;;;;;;;5.40;2.50;;;;;;;;;;1913128;73;21685;-71
2022/08/26 12:31:43;;;;;;;6.85;2.37;;;25.30;99.90;;;;;;1925395;73;21057;-72
2022/08/26 12:34:16;;;;;;;5.37;2.37;;;25.10;99.90;;;;;;1907883;75;21168;-72
2022/08/26 12:36:50;;;;;;;5.05;2.02;;;25.00;99.90;;;;;;1921213;73;21120;-71
2022/08/26 12:39:23;;;;;;;4.28;2.10;;;25.00;99.90;;;;;;1914489;73;21070;-72
2022/08/26 12:41:56;;;;;;;5.70;2.20;;;25.00;99.90;;;;;;1916451;73;21691;-72
2022/08/26 12:44:30;;;;;;;4.67;1.82;;;24.90;99.90;;;;;;1908012;74;21223;-72
2022/08/26 12:47:04;;;;;;;5.12;1.90;;;24.90;99.90;;;;;;1912115;75;21085;-72
2022/08/26 12:49:38;;;;;;;5.90;1.60;;;24.90;99.90;;;;;;1916064;73;21087;-81
2022/08/26 12:52:28;;;;;;;5.42;2.25;;;24.90;99.90;;;;;;1920121;73;21254;-81
2022/08/26 12:57:23;;;;;;;5.27;2.17;;;25.00;99.90;;;;;;1912373;73;21098;-81
2022/08/26 12:59:59;;;;;;;6.62;1.80;;;25.00;99.90;;;;;;1907901;73;21082;-82
2022/08/26 13:02:33;;;;;;;6.17;1.98;;;25.00;99.90;;;;;;1912899;75;21235;-81
2022/08/26 13:05:09;;;;;;;3.62;2.00;;;25.00;99.90;;;;;;1915172;75;21214;-82
2022/08/26 13:07:37;;;;;;;3.55;1.92;;;25.00;99.90;;;;;;1911028;74;21192;-81
2022/08/26 13:10:08;;;;;;;10.78;2.45;;;25.00;99.90;;;;;;1911300;75;21126;-82
2022/08/26 13:12:40;;;;;;;7.58;2.65;;;25.00;99.90;;;;;;1916337;73;21219;-82
2022/08/26 13:15:11;;;;;;;6.20;2.85;;;25.00;99.90;;;;;;1936225;73;21544;-81
2022/08/26 13:17:42;;;;;;;7.87;2.58;;;25.00;99.90;;;;;;1917854;73;21149;-81
2022/08/26 13:20:12;;;;;;;5.40;2.30;;;25.00;99.90;;;;;;1912121;73;21176;-81
2022/08/26 13:22:43;;;;;;;3.62;2.37;;;25.00;99.90;;;;;;1915761;73;21597;-79
2022/08/26 13:25:17;;;;;;;4.03;2.00;;;25.00;99.90;;;;;;1921416;73;21192;-81
2022/08/26 13:27:48;;;;;;;4.47;1.95;;;25.10;99.90;;;;;;1914839;73;21141;-80
2022/08/26 13:30:19;;;;;;;7.30;2.40;;;25.10;99.90;;;;;;1928118;73;21195;-81
2022/08/26 13:32:53;;;;;;;5.58;2.15;;;25.10;99.90;;;;;;1917432;73;21593;-83
2022/08/26 13:35:25;;;;;;;4.20;2.10;;;25.10;99.90;;;;;;1913641;73;21139;-82
2022/08/26 13:37:56;;;;;;;5.53;2.33;;;25.10;99.90;;;;;;1912435;74;21198;-82
2022/08/26 13:40:27;;;;;;;4.55;2.42;;;25.20;99.90;;;;;;1900394;73;21203;-82
2022/08/26 13:43:07;;;;;;;4.55;2.33;;;25.10;99.90;;;;;;1896487;73;21163;-83